Time;durP1;ratioP1;P1;durP2;ratioP2;P2;SDS_P1;SDS_P2;PMS_P1;PMS_P2;Temp;Humidity;BMP_temperature;BMP_pressure;BME280_temperature;BME280_humidity;BME280_pressure;Samples;Min_cycle;Max_cycle;Signal;HPM_P1;HPM_P2
2023/07/26 00:01:42;;;;;;;6.55;4.53;;;12.60;99.90;;;;;;4943481;29;20059;-64
2023/07/26 00:04:08;;;;;;;6.10;4.35;;;12.60;99.90;;;;;;4941061;29;20035;-65
2023/07/26 00:06:40;;;;;;;6.43;4.78;;;12.60;99.90;;;;;;4942472;29;20044;-64
2023/07/26 00:09:12;;;;;;;6.75;5.20;;;12.60;99.90;;;;;;4939887;29;20471;-64
2023/07/26 00:11:44;;;;;;;6.28;4.50;;;12.60;99.90;;;;;;4934146;29;20577;-64
2023/07/26 00:14:11;;;;;;;6.55;4.70;;;12.60;99.90;;;;;;4933665;29;20042;-65
2023/07/26 00:16:43;;;;;;;5.78;4.50;;;12.60;99.90;;;;;;4938624;29;20518;-64
2023/07/26 00:19:14;;;;;;;6.90;4.72;;;12.60;99.90;;;;;;4946897;29;20035;-64
2023/07/26 00:21:47;;;;;;;7.57;4.63;;;12.70;99.90;;;;;;4945401;28;20053;-64
2023/07/26 00:24:18;;;;;;;5.63;5.03;;;12.70;99.90;;;;;;4942181;29;20045;-65
2023/07/26 00:26:50;;;;;;;6.40;4.68;;;12.80;99.90;;;;;;4927674;29;20058;-64
2023/07/26 00:29:22;;;;;;;8.48;5.55;;;12.80;99.90;;;;;;4932009;29;20506;-64
2023/07/26 00:31:54;;;;;;;7.63;4.68;;;12.90;99.90;;;;;;4919710;29;20048;-65
2023/07/26 00:34:26;;;;;;;6.57;4.85;;;12.80;99.90;;;;;;4936734;29;20052;-64
2023/07/26 00:37:03;;;;;;;7.30;4.85;;;12.90;99.90;;;;;;4934329;29;20044;-64
2023/07/26 00:39:35;;;;;;;6.60;5.00;;;12.90;99.90;;;;;;4921714;29;20051;-64
2023/07/26 00:42:07;;;;;;;6.82;4.47;;;12.90;99.90;;;;;;4929047;29;20087;-65
2023/07/26 00:44:40;;;;;;;7.43;5.67;;;12.80;99.90;;;;;;4943685;29;20043;-64
2023/07/26 00:47:13;;;;;;;5.25;4.35;;;12.80;99.90;;;;;;4943393;29;20028;-64
2023/07/26 00:49:45;;;;;;;6.32;5.15;;;12.80;99.90;;;;;;4934180;29;20054;-65
2023/07/26 00:52:17;;;;;;;9.73;4.47;;;12.80;99.90;;;;;;4941505;29;20128;-64
2023/07/26 00:54:44;;;;;;;6.05;4.97;;;12.80;99.90;;;;;;4941736;29;20090;-64
2023/07/26 00:57:16;;;;;;;6.82;5.13;;;12.80;99.90;;;;;;4936591;29;20146;-65
2023/07/26 00:59:49;;;;;;;8.90;5.75;;;12.80;99.90;;;;;;4924396;29;20418;-65
2023/07/26 01:02:21;;;;;;;6.03;5.22;;;12.80;99.90;;;;;;4937908;29;20050;-64
2023/07/26 01:04:53;;;;;;;7.32;5.35;;;12.80;99.90;;;;;;4945974;29;20138;-64
2023/07/26 01:07:45;;;;;;;6.95;5.68;;;12.80;99.90;;;;;;4942014;29;20036;-65
2023/07/26 01:10:41;;;;;;;7.10;6.35;;;12.80;99.90;;;;;;4932304;29;20040;-65
2023/07/26 01:13:20;;;;;;;8.13;6.40;;;12.80;99.90;;;;;;4945289;29;20039;-65
2023/07/26 01:15:53;;;;;;;8.50;6.68;;;12.80;99.90;;;;;;4925436;29;20044;-65
2023/07/26 01:18:25;;;;;;;8.68;6.97;;;12.80;99.90;;;;;;4938625;29;20047;-65
2023/07/26 01:20:59;;;;;;;9.65;6.65;;;12.80;99.90;;;;;;4935990;29;20055;-65
2023/07/26 01:23:32;;;;;;;8.40;6.97;;;12.80;99.90;;;;;;4941664;29;20074;-64
2023/07/26 01:26:05;;;;;;;12.27;8.43;;;12.80;99.90;;;;;;4939122;29;20122;-63
2023/07/26 01:28:36;;;;;;;11.85;8.45;;;12.80;99.90;;;;;;4942969;29;20089;-64
2023/07/26 01:31:11;;;;;;;11.90;9.05;;;12.80;99.90;;;;;;4941058;29;20067;-64
2023/07/26 01:33:44;;;;;;;10.95;9.45;;;12.80;99.90;;;;;;4942340;28;20051;-64
2023/07/26 01:36:16;;;;;;;;;;;12.80;99.90;;;;;;4934139;29;20055;-64
2023/07/26 01:38:50;;;;;;;12.65;9.65;;;12.80;99.90;;;;;;4932599;29;20013;-64
2023/07/26 01:41:23;;;;;;;14.45;9.10;;;12.80;99.90;;;;;;4925677;29;20043;-64
2023/07/26 01:43:49;;;;;;;16.50;11.05;;;12.80;99.90;;;;;;4945290;29;20040;-64
2023/07/26 01:46:21;;;;;;;12.52;10.02;;;12.80;99.90;;;;;;4936763;29;20040;-65
2023/07/26 01:48:53;;;;;;;12.18;10.05;;;12.80;99.90;;;;;;4925293;29;20032;-65
2023/07/26 01:51:25;;;;;;;14.07;10.75;;;12.80;99.90;;;;;;4930617;29;20055;-64
2023/07/26 01:53:57;;;;;;;11.55;9.52;;;12.90;99.90;;;;;;4945066;29;20788;-65
2023/07/26 01:56:28;;;;;;;12.52;9.88;;;12.90;99.90;;;;;;4916268;29;20040;-65
2023/07/26 01:59:00;;;;;;;12.82;10.00;;;12.90;99.90;;;;;;4946630;29;20146;-64
2023/07/26 02:01:32;;;;;;;15.80;10.13;;;12.90;99.90;;;;;;4945187;29;20043;-64
2023/07/26 02:04:04;;;;;;;15.88;10.65;;;12.90;99.90;;;;;;4935661;29;20146;-64
2023/07/26 02:06:36;;;;;;;16.63;10.68;;;12.90;99.90;;;;;;4942075;29;20057;-64
2023/07/26 02:09:08;;;;;;;19.13;10.80;;;12.90;99.90;;;;;;4927400;29;20049;-64
2023/07/26 02:11:40;;;;;;;14.27;10.70;;;13.00;99.90;;;;;;4943525;29;20434;-64
2023/07/26 02:14:13;;;;;;;19.42;12.02;;;12.90;99.90;;;;;;4932008;29;20134;-64
2023/07/26 02:16:45;;;;;;;12.90;10.38;;;12.90;99.90;;;;;;4930391;29;20421;-64
2023/07/26 02:19:17;;;;;;;14.18;10.98;;;12.90;99.90;;;;;;4927934;29;20071;-65
2023/07/26 02:21:49;;;;;;;12.90;10.80;;;12.90;99.90;;;;;;4926139;29;20130;-64
2023/07/26 02:24:21;;;;;;;15.80;10.75;;;12.90;99.90;;;;;;4950746;29;20043;-64
2023/07/26 02:26:53;;;;;;;16.02;11.35;;;12.90;99.90;;;;;;4936474;29;20035;-64
2023/07/26 02:29:25;;;;;;;16.92;12.38;;;12.90;99.90;;;;;;4909597;29;20067;-65
2023/07/26 02:31:57;;;;;;;15.45;12.30;;;12.90;99.90;;;;;;4931584;29;20055;-65
2023/07/26 02:34:28;;;;;;;17.13;12.68;;;12.90;99.90;;;;;;4926897;29;20470;-64
2023/07/26 02:37:03;;;;;;;17.73;12.55;;;12.80;99.90;;;;;;4946241;29;20039;-64
2023/07/26 02:39:35;;;;;;;17.77;13.03;;;12.80;99.90;;;;;;4931262;29;20113;-64
2023/07/26 02:42:07;;;;;;;19.20;12.23;;;12.90;99.90;;;;;;4926533;29;20299;-65
2023/07/26 02:44:39;;;;;;;17.83;12.70;;;12.80;99.90;;;;;;4924557;29;20160;-64
2023/07/26 02:47:11;;;;;;;17.70;13.68;;;12.80;99.90;;;;;;4931280;29;20126;-65
2023/07/26 02:49:42;;;;;;;15.15;12.95;;;12.80;99.90;;;;;;4941145;29;20040;-64
2023/07/26 02:52:14;;;;;;;19.88;14.00;;;12.80;99.90;;;;;;4931443;29;20506;-64
2023/07/26 02:54:46;;;;;;;17.98;13.55;;;12.70;99.90;;;;;;4929473;29;20537;-64
2023/07/26 02:57:18;;;;;;;20.00;14.20;;;12.80;99.90;;;;;;4945159;29;20515;-64
2023/07/26 02:59:50;;;;;;;17.95;14.45;;;12.80;99.90;;;;;;4924504;29;20546;-64
2023/07/26 03:02:22;;;;;;;17.75;14.00;;;12.80;99.90;;;;;;4932062;29;20102;-64
2023/07/26 03:04:54;;;;;;;16.95;13.75;;;12.80;99.90;;;;;;4943431;29;20047;-64
2023/07/26 03:07:26;;;;;;;28.98;16.38;;;12.80;99.90;;;;;;4940824;29;20035;-64
2023/07/26 03:09:57;;;;;;;16.15;14.13;;;12.70;99.90;;;;;;4929539;29;20054;-64
2023/07/26 03:12:29;;;;;;;16.25;13.88;;;12.70;99.90;;;;;;4923858;29;20039;-64
2023/07/26 03:15:01;;;;;;;22.27;13.52;;;12.70;99.90;;;;;;4936294;29;20032;-64
2023/07/26 03:17:33;;;;;;;20.40;14.05;;;12.70;99.90;;;;;;4941556;29;20052;-64
2023/07/26 03:20:06;;;;;;;21.77;16.05;;;12.70;99.90;;;;;;4925069;29;20051;-64
2023/07/26 03:22:32;;;;;;;17.27;13.95;;;12.70;99.90;;;;;;4943153;29;20043;-65
2023/07/26 03:25:05;;;;;;;16.23;13.75;;;12.70;99.90;;;;;;4945031;29;20067;-64
2023/07/26 03:27:32;;;;;;;17.52;14.18;;;12.70;99.90;;;;;;4929944;29;20126;-64
2023/07/26 03:30:04;;;;;;;20.52;14.48;;;12.60;99.90;;;;;;4923667;29;20047;-64
2023/07/26 03:32:36;;;;;;;16.70;13.55;;;12.70;99.90;;;;;;4935304;29;20050;-65
2023/07/26 03:35:08;;;;;;;16.92;14.15;;;12.60;99.90;;;;;;4935025;29;20046;-65
2023/07/26 03:37:35;;;;;;;19.98;14.30;;;12.60;99.90;;;;;;4941207;29;20049;-65
2023/07/26 03:40:07;;;;;;;20.52;14.88;;;12.60;99.90;;;;;;4927640;29;20043;-65
2023/07/26 03:42:40;;;;;;;19.10;14.00;;;12.60;99.90;;;;;;4929794;29;20067;-65
2023/07/26 03:45:12;;;;;;;21.65;15.63;;;12.60;99.90;;;;;;4942884;29;20051;-71
2023/07/26 03:47:38;;;;;;;20.55;15.00;;;12.60;99.90;;;;;;4934749;29;20515;-65
2023/07/26 03:50:10;;;;;;;19.30;13.55;;;12.60;99.90;;;;;;4928698;29;20046;-65
2023/07/26 03:52:42;;;;;;;15.63;13.65;;;12.60;99.90;;;;;;4926781;29;20135;-64
2023/07/26 03:55:15;;;;;;;17.08;13.57;;;12.90;99.90;;;;;;4935830;29;20141;-64
2023/07/26 03:57:46;;;;;;;17.67;13.68;;;12.90;99.90;;;;;;4919109;29;20071;-65
2023/07/26 04:00:18;;;;;;;16.38;12.82;;;12.90;99.90;;;;;;4930418;29;20391;-64
2023/07/26 04:02:51;;;;;;;20.30;14.65;;;12.70;99.90;;;;;;4948288;29;20518;-65
2023/07/26 04:05:23;;;;;;;19.25;14.15;;;12.70;99.90;;;;;;4943938;29;20043;-65
2023/07/26 04:07:55;;;;;;;20.30;14.85;;;12.70;99.90;;;;;;4946099;29;20035;-66
2023/07/26 04:10:28;;;;;;;19.67;14.85;;;12.60;99.90;;;;;;4931894;29;20043;-65
2023/07/26 04:12:55;;;;;;;18.02;14.77;;;12.60;99.90;;;;;;4941317;29;20046;-68
2023/07/26 04:15:29;;;;;;;17.23;14.23;;;12.60;99.90;;;;;;4943221;29;20055;-65
2023/07/26 04:17:56;;;;;;;18.40;13.80;;;12.60;99.90;;;;;;4936347;29;20566;-66
2023/07/26 04:20:28;;;;;;;20.38;15.18;;;12.50;99.90;;;;;;4935553;29;20054;-66
2023/07/26 04:22:55;;;;;;;24.30;15.57;;;12.50;99.90;;;;;;4945550;29;20518;-66
2023/07/26 04:25:27;;;;;;;20.23;14.88;;;12.50;99.90;;;;;;4929302;29;20433;-65
2023/07/26 04:27:59;;;;;;;18.90;15.45;;;12.40;99.90;;;;;;4947285;29;20413;-65
2023/07/26 04:30:26;;;;;;;22.27;15.85;;;12.40;99.90;;;;;;4945754;29;20043;-65
2023/07/26 04:32:57;;;;;;;21.30;15.50;;;12.40;99.90;;;;;;4933202;29;20062;-65
2023/07/26 04:35:29;;;;;;;19.17;14.95;;;12.50;99.90;;;;;;4949549;29;20054;-65
2023/07/26 04:38:01;;;;;;;20.45;15.82;;;12.40;99.90;;;;;;4932586;29;20130;-65
2023/07/26 04:40:36;;;;;;;17.55;14.77;;;12.40;99.90;;;;;;4945843;29;20047;-66
2023/07/26 04:43:04;;;;;;;20.05;13.98;;;12.30;99.90;;;;;;4936852;29;20036;-66
2023/07/26 04:45:36;;;;;;;16.58;13.07;;;12.30;99.90;;;;;;4945472;29;20134;-65
2023/07/26 04:48:07;;;;;;;18.13;13.48;;;12.40;99.90;;;;;;4945155;29;20073;-68
2023/07/26 04:50:34;;;;;;;15.02;11.90;;;12.40;99.90;;;;;;4928941;29;20050;-68
2023/07/26 04:53:06;;;;;;;15.27;12.93;;;12.30;99.90;;;;;;4943240;29;20697;-69
2023/07/26 04:55:50;;;;;;;18.23;11.82;;;12.40;99.90;;;;;;4943482;29;20102;-69
2023/07/26 04:58:21;;;;;;;14.23;10.68;;;12.50;99.90;;;;;;4924539;29;20051;-69
2023/07/26 05:00:53;;;;;;;10.68;9.52;;;12.60;99.90;;;;;;4940537;29;20512;-69
2023/07/26 05:03:25;;;;;;;12.55;10.45;;;12.60;99.90;;;;;;4940184;29;20614;-69
2023/07/26 05:05:58;;;;;;;13.18;9.10;;;12.50;99.90;;;;;;4938092;29;20052;-68
2023/07/26 05:08:30;;;;;;;14.77;9.93;;;12.50;99.90;;;;;;4939841;28;20051;-68
2023/07/26 05:11:02;;;;;;;12.27;9.60;;;12.50;99.90;;;;;;4944565;29;20395;-69
2023/07/26 05:13:29;;;;;;;11.32;8.23;;;12.50;99.90;;;;;;4933633;29;20134;-68
2023/07/26 05:16:01;;;;;;;10.57;8.85;;;12.40;99.90;;;;;;4941635;29;20063;-68
2023/07/26 05:18:28;;;;;;;11.60;8.27;;;12.40;99.90;;;;;;4945551;29;20074;-68
2023/07/26 05:20:54;;;;;;;12.57;8.50;;;12.50;99.90;;;;;;4941061;29;20492;-68
2023/07/26 05:23:27;;;;;;;10.98;8.48;;;12.40;99.90;;;;;;4930463;29;20047;-68
2023/07/26 05:25:58;;;;;;;11.43;9.25;;;12.40;99.90;;;;;;4935937;29;20047;-67
2023/07/26 05:28:30;;;;;;;13.15;9.15;;;12.40;99.90;;;;;;4937781;29;20729;-68
2023/07/26 05:31:03;;;;;;;12.18;8.75;;;12.40;99.90;;;;;;4922162;29;20048;-68
2023/07/26 05:33:35;;;;;;;11.90;9.38;;;12.40;99.90;;;;;;4943975;29;20043;-68
2023/07/26 05:36:07;;;;;;;12.30;9.82;;;12.50;99.90;;;;;;4941185;29;20047;-68
2023/07/26 05:38:33;;;;;;;11.75;10.35;;;12.40;99.90;;;;;;4943300;29;20047;-68
2023/07/26 05:41:06;;;;;;;12.80;10.13;;;12.50;99.90;;;;;;4944113;29;20430;-69
2023/07/26 05:43:38;;;;;;;13.45;10.35;;;12.50;99.90;;;;;;4927465;29;20044;-68
2023/07/26 05:46:10;;;;;;;13.20;10.00;;;12.50;99.90;;;;;;4939592;29;20035;-68
2023/07/26 05:48:41;;;;;;;12.27;9.43;;;12.50;99.90;;;;;;4936776;29;20120;-68
2023/07/26 05:51:13;;;;;;;13.00;9.95;;;12.60;99.90;;;;;;4945720;29;20128;-68
2023/07/26 05:53:40;;;;;;;14.25;10.88;;;12.60;99.90;;;;;;4939435;29;20039;-69
2023/07/26 05:56:14;;;;;;;11.75;10.55;;;12.60;99.90;;;;;;4933859;29;20526;-68
2023/07/26 05:58:46;;;;;;;15.23;10.07;;;12.50;99.90;;;;;;4942170;29;20053;-68
2023/07/26 06:01:13;;;;;;;12.70;10.18;;;12.60;99.90;;;;;;4944510;29;20067;-68
2023/07/26 06:03:46;;;;;;;13.10;10.25;;;12.50;99.90;;;;;;4941836;29;20048;-68
2023/07/26 06:06:12;;;;;;;13.68;9.75;;;12.60;99.90;;;;;;4943630;29;20040;-69
2023/07/26 06:08:39;;;;;;;11.43;9.43;;;12.60;99.90;;;;;;4936946;29;20043;-68
2023/07/26 06:11:11;;;;;;;14.02;9.77;;;12.60;99.90;;;;;;4933883;29;20067;-68
2023/07/26 06:13:43;;;;;;;11.80;9.88;;;12.50;99.90;;;;;;4935226;29;20058;-67
2023/07/26 06:16:09;;;;;;;12.82;9.90;;;12.50;99.90;;;;;;4935650;29;20489;-68
2023/07/26 06:18:36;;;;;;;10.68;8.93;;;12.50;99.90;;;;;;4942035;29;20054;-68
2023/07/26 06:21:08;;;;;;;11.20;9.70;;;12.40;99.90;;;;;;4933154;29;20046;-68
2023/07/26 06:23:40;;;;;;;10.05;8.65;;;12.40;99.90;;;;;;4930435;29;20411;-68
2023/07/26 06:26:12;;;;;;;12.07;8.85;;;12.40;99.90;;;;;;4948218;29;20051;-68
2023/07/26 06:28:44;;;;;;;11.00;9.30;;;12.40;99.90;;;;;;4948023;29;20043;-68
2023/07/26 06:31:16;;;;;;;13.13;10.00;;;12.50;99.90;;;;;;4938662;29;20046;-68
2023/07/26 06:33:48;;;;;;;13.20;9.48;;;12.50;99.90;;;;;;4938123;29;20423;-67
2023/07/26 06:36:20;;;;;;;12.80;8.80;;;12.50;99.90;;;;;;4935313;29;20050;-68
2023/07/26 06:38:52;;;;;;;10.15;8.68;;;12.50;99.90;;;;;;4927560;29;20454;-69
2023/07/26 06:41:24;;;;;;;12.52;9.55;;;12.40;99.90;;;;;;4949688;29;20442;-68
2023/07/26 06:43:56;;;;;;;11.60;8.25;;;12.50;99.90;;;;;;4946802;29;20057;-68
2023/07/26 06:46:23;;;;;;;9.15;7.80;;;12.50;99.90;;;;;;4943509;29;20049;-68
2023/07/26 06:48:50;;;;;;;8.82;7.25;;;12.50;99.90;;;;;;4944039;29;20050;-68
2023/07/26 06:51:22;;;;;;;10.40;6.85;;;12.50;99.90;;;;;;4948658;29;20051;-68
2023/07/26 06:53:49;;;;;;;10.07;6.60;;;12.50;99.90;;;;;;4941757;29;20410;-68
2023/07/26 06:56:21;;;;;;;6.75;6.05;;;12.60;99.90;;;;;;4943080;29;20031;-68
2023/07/26 06:58:53;;;;;;;8.43;6.35;;;12.60;99.90;;;;;;4939741;29;20195;-68
2023/07/26 07:01:25;;;;;;;7.68;6.20;;;12.70;99.90;;;;;;4942824;29;20041;-68
2023/07/26 07:03:52;;;;;;;6.90;5.53;;;12.70;99.90;;;;;;4949623;29;20054;-67
2023/07/26 07:06:24;;;;;;;7.00;5.40;;;12.70;99.90;;;;;;4929823;29;20127;-67
2023/07/26 07:08:57;;;;;;;9.27;5.18;;;12.60;99.90;;;;;;4942885;29;20039;-68
2023/07/26 07:11:28;;;;;;;6.03;4.70;;;12.70;99.90;;;;;;4943386;29;20039;-68
2023/07/26 07:14:00;;;;;;;7.45;4.97;;;12.70;99.90;;;;;;4949955;29;20044;-68
2023/07/26 07:16:27;;;;;;;7.15;4.55;;;12.70;99.90;;;;;;4946287;29;20051;-68
2023/07/26 07:18:59;;;;;;;6.35;4.80;;;12.70;99.90;;;;;;4937887;29;20043;-68
2023/07/26 07:21:32;;;;;;;7.30;5.10;;;12.80;99.90;;;;;;4937508;29;20498;-68
2023/07/26 07:24:04;;;;;;;6.43;5.03;;;12.80;99.90;;;;;;4939448;29;20047;-68
2023/07/26 07:26:36;;;;;;;7.30;4.95;;;12.80;99.90;;;;;;4937643;29;20044;-68
2023/07/26 07:29:03;;;;;;;5.00;4.47;;;12.80;99.90;;;;;;4945847;29;20051;-68
2023/07/26 07:31:35;;;;;;;8.48;4.38;;;12.90;99.90;;;;;;4942150;28;20427;-68
2023/07/26 07:34:06;;;;;;;7.05;4.40;;;13.00;99.90;;;;;;4943468;29;20050;-68
2023/07/26 07:36:38;;;;;;;4.72;4.30;;;13.10;99.90;;;;;;4941313;29;20134;-68
2023/07/26 07:39:12;;;;;;;5.43;4.28;;;13.10;99.90;;;;;;4933578;29;20098;-69
2023/07/26 07:41:44;;;;;;;6.43;4.30;;;13.20;99.90;;;;;;4942716;29;20126;-67
2023/07/26 07:44:17;;;;;;;4.93;4.00;;;13.30;99.90;;;;;;4944043;29;20562;-68
2023/07/26 07:46:48;;;;;;;5.28;4.45;;;13.40;99.90;;;;;;4942545;29;20047;-68
2023/07/26 07:49:15;;;;;;;4.88;3.95;;;13.40;99.90;;;;;;4928754;29;20498;-68
2023/07/26 07:51:47;;;;;;;5.43;4.20;;;13.50;99.90;;;;;;4929621;29;20138;-68
2023/07/26 07:54:19;;;;;;;5.72;4.43;;;13.50;99.90;;;;;;4942662;29;20103;-68
2023/07/26 07:56:51;;;;;;;5.20;4.15;;;13.70;99.90;;;;;;4935521;29;20039;-68
2023/07/26 07:59:23;;;;;;;5.03;4.20;;;13.70;99.90;;;;;;4929047;29;20127;-68
2023/07/26 08:01:55;;;;;;;5.05;3.80;;;13.70;99.90;;;;;;4944150;29;20051;-68
2023/07/26 08:04:27;;;;;;;4.18;3.83;;;13.80;99.90;;;;;;4936514;29;20047;-67
2023/07/26 08:06:54;;;;;;;4.40;3.83;;;14.00;99.90;;;;;;4937929;29;20035;-68
2023/07/26 08:09:21;;;;;;;4.78;4.10;;;14.10;99.90;;;;;;4941310;29;20046;-68
2023/07/26 08:11:53;;;;;;;5.72;4.10;;;14.30;99.90;;;;;;4943661;29;20043;-67
2023/07/26 08:14:25;;;;;;;5.15;4.03;;;14.30;99.90;;;;;;4944227;29;20122;-67
2023/07/26 08:16:57;;;;;;;6.57;4.00;;;14.40;99.90;;;;;;4942997;29;20051;-68
2023/07/26 08:19:24;;;;;;;4.63;4.22;;;14.40;99.90;;;;;;4942221;29;20044;-68
2023/07/26 08:21:56;;;;;;;5.07;4.18;;;14.50;99.90;;;;;;4939915;29;20110;-68
2023/07/26 08:24:27;;;;;;;6.18;4.10;;;14.60;99.90;;;;;;4922206;29;20039;-67
2023/07/26 08:26:59;;;;;;;5.93;5.30;;;14.60;99.90;;;;;;4945231;29;20047;-68
2023/07/26 08:29:31;;;;;;;6.95;4.10;;;14.60;99.90;;;;;;4935710;29;20048;-67
2023/07/26 08:31:58;;;;;;;5.07;4.30;;;14.60;99.90;;;;;;4937501;29;20047;-68
2023/07/26 08:34:25;;;;;;;6.40;4.13;;;14.60;99.90;;;;;;4941087;29;20044;-67
2023/07/26 08:36:57;;;;;;;6.38;5.13;;;14.60;99.90;;;;;;4942457;29;20449;-67
2023/07/26 08:39:29;;;;;;;5.13;3.65;;;14.60;99.90;;;;;;4940988;29;20526;-68
2023/07/26 08:42:01;;;;;;;4.38;3.50;;;14.60;99.90;;;;;;4940712;29;20071;-68
2023/07/26 08:44:34;;;;;;;4.77;3.73;;;14.80;99.90;;;;;;4938378;28;20043;-67
2023/07/26 08:47:09;;;;;;;4.90;3.40;;;14.80;99.90;;;;;;4938101;29;20825;-68
2023/07/26 08:49:41;;;;;;;5.80;3.83;;;14.60;99.90;;;;;;4934183;29;20050;-68
2023/07/26 08:52:15;;;;;;;3.78;3.40;;;14.50;99.90;;;;;;4935329;29;20527;-68
2023/07/26 08:54:46;;;;;;;6.80;3.80;;;14.30;99.90;;;;;;4938255;29;20051;-68
2023/07/26 08:57:19;;;;;;;4.05;3.08;;;14.40;99.90;;;;;;4941397;29;20556;-68
2023/07/26 08:59:51;;;;;;;5.40;3.28;;;14.30;99.90;;;;;;4927640;29;20057;-68
2023/07/26 09:02:24;;;;;;;3.53;3.10;;;14.30;99.90;;;;;;4943038;29;20043;-68
2023/07/26 09:04:56;;;;;;;3.63;3.28;;;14.40;99.90;;;;;;4929633;29;20510;-67
2023/07/26 09:07:28;;;;;;;3.42;3.00;;;14.60;99.90;;;;;;4939804;29;20070;-67
2023/07/26 09:10:00;;;;;;;4.72;3.35;;;15.00;99.90;;;;;;4935742;29;20043;-67
2023/07/26 09:12:32;;;;;;;5.63;3.40;;;15.00;99.90;;;;;;4918013;29;20035;-68
2023/07/26 09:15:05;;;;;;;5.35;2.92;;;14.90;99.90;;;;;;4938290;29;20091;-67
2023/07/26 09:17:38;;;;;;;4.63;3.47;;;15.00;99.90;;;;;;4939451;29;20088;-67
2023/07/26 09:20:26;;;;;;;4.43;3.28;;;14.90;99.90;;;;;;4930750;29;20094;-67
2023/07/26 09:22:59;;;;;;;5.05;3.80;;;15.00;99.90;;;;;;4931848;29;20522;-68
2023/07/26 09:25:42;;;;;;;4.25;3.65;;;15.20;99.90;;;;;;4934634;29;20067;-67
2023/07/26 09:28:15;;;;;;;4.22;3.33;;;15.30;99.90;;;;;;4942451;29;20047;-68
2023/07/26 09:30:48;;;;;;;4.85;3.05;;;15.40;99.90;;;;;;4941531;29;20119;-67
2023/07/26 09:33:22;;;;;;;4.55;3.75;;;15.50;99.90;;;;;;4935244;29;20406;-67
2023/07/26 09:35:54;;;;;;;4.95;3.55;;;15.70;99.90;;;;;;4937013;29;20043;-67
2023/07/26 09:38:26;;;;;;;4.32;3.40;;;15.80;99.90;;;;;;4948401;29;20098;-67
2023/07/26 09:40:58;;;;;;;8.25;3.67;;;15.70;99.90;;;;;;4942591;29;20051;-67
2023/07/26 09:43:31;;;;;;;5.13;3.50;;;15.80;99.90;;;;;;4946840;29;20047;-67
2023/07/26 09:46:02;;;;;;;4.95;3.00;;;15.90;99.90;;;;;;4944807;29;20039;-67
2023/07/26 09:48:29;;;;;;;7.10;3.45;;;16.00;99.90;;;;;;4944519;29;20043;-67
2023/07/26 09:51:05;;;;;;;8.02;2.97;;;16.10;99.90;;;;;;4939202;29;20475;-67
2023/07/26 09:53:39;;;;;;;4.55;3.13;;;16.10;99.90;;;;;;4936125;29;20087;-67
2023/07/26 09:56:12;;;;;;;5.72;3.60;;;16.20;99.90;;;;;;4940396;29;20558;-67
2023/07/26 09:58:48;;;;;;;5.43;3.10;;;16.40;99.90;;;;;;4934017;29;20106;-67
2023/07/26 10:01:22;;;;;;;6.32;3.10;;;16.40;99.90;;;;;;4945529;29;20046;-67
2023/07/26 10:03:52;;;;;;;3.17;2.88;;;16.40;99.90;;;;;;4944830;29;20050;-67
2023/07/26 10:06:28;;;;;;;3.58;2.67;;;16.40;99.90;;;;;;4932194;29;20608;-67
2023/07/26 10:08:56;;;;;;;4.57;2.45;;;16.40;99.90;;;;;;4947665;29;20067;-66
2023/07/26 10:11:29;;;;;;;4.05;2.40;;;16.20;99.90;;;;;;4945815;29;20044;-67
2023/07/26 10:14:00;;;;;;;5.10;2.30;;;16.10;99.90;;;;;;4941501;29;20054;-64
2023/07/26 10:16:27;;;;;;;4.35;2.85;;;16.10;99.90;;;;;;4939765;29;20143;-65
2023/07/26 10:19:02;;;;;;;8.75;3.97;;;15.90;99.90;;;;;;4925711;29;20048;-65
2023/07/26 10:21:38;;;;;;;6.40;3.90;;;15.60;99.90;;;;;;4937461;29;20533;-64
2023/07/26 10:24:11;;;;;;;10.02;3.97;;;15.20;99.90;;;;;;4949894;29;20035;-65
2023/07/26 10:26:46;;;;;;;5.85;3.05;;;14.60;99.90;;;;;;4946415;29;20046;-64
2023/07/26 10:29:18;;;;;;;4.55;3.13;;;14.30;99.90;;;;;;4946706;29;20039;-68
2023/07/26 10:32:04;;;;;;;7.07;3.40;;;14.30;99.90;;;;;;4945323;29;20070;-64
2023/07/26 10:34:36;;;;;;;6.95;3.10;;;14.30;99.90;;;;;;4948098;29;20611;-65
2023/07/26 10:37:18;;;;;;;3.75;2.83;;;14.40;99.90;;;;;;4942886;29;20039;-66
2023/07/26 10:39:50;;;;;;;3.38;3.08;;;14.40;99.90;;;;;;4944659;29;20048;-66
2023/07/26 10:42:29;;;;;;;4.03;3.45;;;14.60;99.90;;;;;;4931408;29;20523;-66
2023/07/26 10:45:02;;;;;;;4.15;3.75;;;14.60;99.90;;;;;;4923343;29;20123;-66
2023/07/26 10:47:50;;;;;;;4.05;3.60;;;14.70;99.90;;;;;;4945654;29;20034;-66
2023/07/26 10:50:24;;;;;;;5.07;3.90;;;14.70;99.90;;;;;;4948362;29;20046;-65
2023/07/26 10:52:56;;;;;;;4.60;4.03;;;14.60;99.90;;;;;;4945720;29;20048;-65
2023/07/26 10:55:30;;;;;;;5.03;4.53;;;14.50;99.90;;;;;;4933288;29;20516;-65
2023/07/26 10:57:58;;;;;;;6.38;3.88;;;14.20;99.90;;;;;;4949522;29;20044;-65
2023/07/26 11:00:34;;;;;;;4.88;4.47;;;14.10;99.90;;;;;;4938723;29;20048;-70
2023/07/26 11:03:02;;;;;;;3.30;2.83;;;14.10;99.90;;;;;;4940467;29;20126;-65
2023/07/26 11:05:38;;;;;;;2.80;2.17;;;13.90;99.90;;;;;;4941179;29;20047;-65
2023/07/26 11:08:10;;;;;;;3.15;1.67;;;13.60;99.90;;;;;;4937872;29;20039;-65
2023/07/26 11:10:51;;;;;;;2.33;1.58;;;13.60;99.90;;;;;;4949404;29;20123;-65
2023/07/26 11:13:32;;;;;;;2.03;1.38;;;13.40;99.90;;;;;;4944941;29;20043;-65
2023/07/26 11:16:04;;;;;;;2.65;1.00;;;13.30;99.90;;;;;;4930866;29;20047;-65
2023/07/26 11:18:39;;;;;;;1.35;1.25;;;13.20;99.90;;;;;;4948139;29;20099;-65
2023/07/26 11:21:15;;;;;;;2.88;1.50;;;13.20;99.90;;;;;;4945129;29;20124;-66
2023/07/26 11:23:47;;;;;;;1.50;1.27;;;13.40;99.90;;;;;;4939164;29;20052;-66
2023/07/26 11:26:19;;;;;;;1.55;1.45;;;13.50;99.90;;;;;;4930419;29;20048;-66
2023/07/26 11:28:51;;;;;;;3.80;1.17;;;13.70;99.90;;;;;;4941776;29;20058;-66
2023/07/26 11:31:19;;;;;;;2.15;1.70;;;13.70;99.90;;;;;;4948251;29;20044;-66
2023/07/26 11:33:51;;;;;;;2.15;1.73;;;13.70;99.90;;;;;;4946113;29;20622;-66
2023/07/26 11:36:24;;;;;;;3.40;2.08;;;13.90;99.90;;;;;;4944905;29;20134;-66
2023/07/26 11:39:00;;;;;;;1.98;1.70;;;14.10;99.90;;;;;;4943542;29;20047;-65
2023/07/26 11:41:32;;;;;;;2.67;1.75;;;14.20;99.90;;;;;;4943676;29;20070;-65
2023/07/26 11:44:04;;;;;;;1.80;1.60;;;14.40;99.90;;;;;;4934030;29;20047;-65
2023/07/26 11:46:36;;;;;;;5.03;1.73;;;14.60;99.90;;;;;;4951705;28;20048;-66
2023/07/26 11:49:22;;;;;;;2.10;1.65;;;14.80;99.90;;;;;;4921844;29;20047;-66
2023/07/26 11:51:54;;;;;;;2.80;1.60;;;14.90;99.90;;;;;;4940973;29;20562;-65
2023/07/26 11:54:29;;;;;;;2.80;1.50;;;15.00;99.90;;;;;;4943828;29;20043;-65
2023/07/26 11:57:01;;;;;;;1.63;1.42;;;14.90;99.90;;;;;;4946954;29;20046;-65
2023/07/26 11:59:34;;;;;;;1.52;1.38;;;14.80;99.90;;;;;;4945626;29;20105;-66
2023/07/26 12:02:06;;;;;;;3.88;1.70;;;14.80;99.90;;;;;;4929566;29;20051;-65
2023/07/26 12:04:38;;;;;;;2.83;1.90;;;14.90;99.90;;;;;;4945425;29;20547;-65
2023/07/26 12:07:11;;;;;;;2.45;2.25;;;15.00;99.90;;;;;;4948335;29;20062;-65
2023/07/26 12:09:46;;;;;;;2.25;1.88;;;15.00;99.90;;;;;;4943715;29;20047;-65
2023/07/26 12:12:18;;;;;;;2.70;1.90;;;15.00;99.90;;;;;;4946867;29;20036;-65
2023/07/26 12:14:50;;;;;;;1.92;1.70;;;14.90;99.90;;;;;;4938201;29;20430;-66
2023/07/26 12:17:16;;;;;;;2.08;1.83;;;14.90;99.90;;;;;;4942383;28;20073;-66
2023/07/26 12:19:44;;;;;;;4.70;1.63;;;14.80;99.90;;;;;;4928632;29;20039;-66
2023/07/26 12:22:17;;;;;;;2.33;1.98;;;14.50;99.90;;;;;;4939597;29;20043;-65
2023/07/26 12:24:51;;;;;;;3.88;2.03;;;14.20;99.90;;;;;;4944604;29;20074;-65
2023/07/26 12:27:23;;;;;;;2.47;1.83;;;14.00;99.90;;;;;;4944047;29;20051;-65
2023/07/26 12:29:49;;;;;;;3.78;2.30;;;13.70;99.90;;;;;;4940732;29;20101;-65
2023/07/26 12:32:22;;;;;;;2.55;2.15;;;13.70;99.90;;;;;;4923567;29;20039;-66
2023/07/26 12:34:53;;;;;;;2.67;1.83;;;13.70;99.90;;;;;;4912707;29;20039;-66
2023/07/26 12:37:30;;;;;;;2.05;1.85;;;13.80;99.90;;;;;;4939201;29;20071;-66
2023/07/26 12:40:02;;;;;;;2.03;1.80;;;13.70;99.90;;;;;;4943896;29;20121;-67
2023/07/26 12:42:36;;;;;;;2.50;1.50;;;13.60;99.90;;;;;;4941126;29;20043;-67
2023/07/26 12:45:08;;;;;;;2.58;1.50;;;13.70;99.90;;;;;;4944733;29;20039;-66
2023/07/26 12:47:35;;;;;;;1.85;1.65;;;13.90;99.90;;;;;;4943930;29;20208;-65
2023/07/26 12:50:02;;;;;;;1.92;1.50;;;14.00;99.90;;;;;;4945174;29;20043;-66
2023/07/26 12:52:29;;;;;;;2.05;1.50;;;14.00;99.90;;;;;;4923354;29;20040;-65
2023/07/26 12:55:01;;;;;;;4.00;1.90;;;14.10;99.90;;;;;;4937755;29;20519;-66
2023/07/26 12:57:34;;;;;;;2.17;1.90;;;14.10;99.90;;;;;;4935981;29;20128;-66
2023/07/26 13:00:01;;;;;;;2.58;1.90;;;14.10;99.90;;;;;;4935137;29;20536;-66
2023/07/26 13:02:28;;;;;;;4.03;1.60;;;14.10;99.90;;;;;;4930936;29;20159;-67
2023/07/26 13:05:02;;;;;;;2.10;1.70;;;14.10;99.90;;;;;;4939764;29;20043;-66